sensor_id;sensor_type;location;lat;lon;timestamp;temperature;humidity
18317;DHT22;9284;52.298;21.164;2023-03-01T04:11:01;-4.20;1.00
18317;DHT22;9284;52.298;21.164;2023-03-01T04:13:53;-4.20;1.00
18317;DHT22;9284;52.298;21.164;2023-03-01T04:16:22;-4.10;1.00
18317;DHT22;9284;52.298;21.164;2023-03-01T04:18:50;-4.30;1.00
18317;DHT22;9284;52.298;21.164;2023-03-01T04:21:20;-4.10;1.00
18317;DHT22;9284;52.298;21.164;2023-03-01T04:23:49;-4.30;1.00
18317;DHT22;9284;52.298;21.164;2023-03-01T04:26:21;-4.30;1.00
18317;DHT22;9284;52.298;21.164;2023-03-01T04:28:49;-4.10;1.00
18317;DHT22;9284;52.298;21.164;2023-03-01T04:31:18;-4.10;1.00
18317;DHT22;9284;52.298;21.164;2023-03-01T04:33:49;-4.00;1.00
18317;DHT22;9284;52.298;21.164;2023-03-01T04:36:20;-4.10;1.00
18317;DHT22;9284;52.298;21.164;2023-03-01T04:38:49;-4.10;1.00
18317;DHT22;9284;52.298;21.164;2023-03-01T04:41:22;-4.00;99.90
18317;DHT22;9284;52.298;21.164;2023-03-01T04:43:51;-4.10;99.90
18317;DHT22;9284;52.298;21.164;2023-03-01T04:46:20;-4.00;1.00
18317;DHT22;9284;52.298;21.164;2023-03-01T04:48:48;-4.00;99.90
18317;DHT22;9284;52.298;21.164;2023-03-01T04:51:17;-4.00;99.90
18317;DHT22;9284;52.298;21.164;2023-03-01T04:53:45;-4.00;99.90
18317;DHT22;9284;52.298;21.164;2023-03-01T04:56:14;-4.10;99.90
18317;DHT22;9284;52.298;21.164;2023-03-01T04:58:46;-4.00;99.90
18317;DHT22;9284;52.298;21.164;2023-03-01T05:01:16;-4.10;99.90
18317;DHT22;9284;52.298;21.164;2023-03-01T05:03:47;-4.20;99.90
18317;DHT22;9284;52.298;21.164;2023-03-01T05:06:18;-4.20;99.90
18317;DHT22;9284;52.298;21.164;2023-03-01T05:08:46;-4.30;99.90
18317;DHT22;9284;52.298;21.164;2023-03-01T05:11:15;-4.30;99.90
18317;DHT22;9284;52.298;21.164;2023-03-01T05:13:43;-4.30;99.90
18317;DHT22;9284;52.298;21.164;2023-03-01T05:16:12;-4.30;99.90
18317;DHT22;9284;52.298;21.164;2023-03-01T05:18:41;-4.30;99.90
18317;DHT22;9284;52.298;21.164;2023-03-01T05:21:11;-4.30;99.90
18317;DHT22;9284;52.298;21.164;2023-03-01T05:23:40;-4.10;99.90
18317;DHT22;9284;52.298;21.164;2023-03-01T05:26:09;-4.30;99.90
18317;DHT22;9284;52.298;21.164;2023-03-01T05:28:54;-4.30;99.90
18317;DHT22;9284;52.298;21.164;2023-03-01T05:31:27;-4.30;99.90
18317;DHT22;9284;52.298;21.164;2023-03-01T05:33:57;-4.30;1.00
18317;DHT22;9284;52.298;21.164;2023-03-01T05:36:26;-4.30;99.90
18317;DHT22;9284;52.298;21.164;2023-03-01T05:38:54;-4.20;1.00
18317;DHT22;9284;52.298;21.164;2023-03-01T05:41:22;-4.20;99.90
18317;DHT22;9284;52.298;21.164;2023-03-01T05:43:51;-4.20;99.90
18317;DHT22;9284;52.298;21.164;2023-03-01T05:46:19;-4.10;99.90
18317;DHT22;9284;52.298;21.164;2023-03-01T05:48:49;-4.20;99.90
18317;DHT22;9284;52.298;21.164;2023-03-01T05:51:17;-4.20;1.00
18317;DHT22;9284;52.298;21.164;2023-03-01T05:53:45;-4.10;1.00
18317;DHT22;9284;52.298;21.164;2023-03-01T05:56:13;-4.10;1.00
18317;DHT22;9284;52.298;21.164;2023-03-01T05:58:42;-3.90;1.00
18317;DHT22;9284;52.298;21.164;2023-03-01T06:01:11;-3.80;1.00
18317;DHT22;9284;52.298;21.164;2023-03-01T06:03:40;-3.80;99.90
18317;DHT22;9284;52.298;21.164;2023-03-01T06:06:10;-3.80;99.90
18317;DHT22;9284;52.298;21.164;2023-03-01T06:08:38;-3.70;99.90
18317;DHT22;9284;52.298;21.164;2023-03-01T06:11:07;-3.60;99.90
18317;DHT22;9284;52.298;21.164;2023-03-01T06:13:35;-3.50;99.90
18317;DHT22;9284;52.298;21.164;2023-03-01T06:16:05;-3.40;99.90
18317;DHT22;9284;52.298;21.164;2023-03-01T06:18:33;-3.30;99.90
18317;DHT22;9284;52.298;21.164;2023-03-01T06:21:02;-3.20;32.00
18317;DHT22;9284;52.298;21.164;2023-03-01T06:23:32;-3.10;1.00
18317;DHT22;9284;52.298;21.164;2023-03-01T06:26:05;-3.00;1.00
18317;DHT22;9284;52.298;21.164;2023-03-01T06:28:34;-2.90;1.00
18317;DHT22;9284;52.298;21.164;2023-03-01T06:31:03;-2.90;99.90
18317;DHT22;9284;52.298;21.164;2023-03-01T06:33:31;-2.70;99.90
18317;DHT22;9284;52.298;21.164;2023-03-01T06:35:59;-2.70;1.00
18317;DHT22;9284;52.298;21.164;2023-03-01T06:38:28;-2.60;1.00
18317;DHT22;9284;52.298;21.164;2023-03-01T06:40:57;-2.50;99.90
18317;DHT22;9284;52.298;21.164;2023-03-01T06:43:25;-2.50;1.00
18317;DHT22;9284;52.298;21.164;2023-03-01T06:45:54;-2.30;99.90
18317;DHT22;9284;52.298;21.164;2023-03-01T06:48:22;-2.20;1.00
18317;DHT22;9284;52.298;21.164;2023-03-01T06:50:50;-2.10;1.00
18317;DHT22;9284;52.298;21.164;2023-03-01T06:53:19;-2.10;99.90
18317;DHT22;9284;52.298;21.164;2023-03-01T06:55:47;-2.00;1.00
18317;DHT22;9284;52.298;21.164;2023-03-01T06:58:16;-1.90;99.90
18317;DHT22;9284;52.298;21.164;2023-03-01T07:00:45;-1.70;1.00
18317;DHT22;9284;52.298;21.164;2023-03-01T07:03:13;-1.40;1.00
18317;DHT22;9284;52.298;21.164;2023-03-01T07:05:41;-0.90;86.30
18317;DHT22;9284;52.298;21.164;2023-03-01T07:08:11;-0.60;1.00
18317;DHT22;9284;52.298;21.164;2023-03-01T07:10:39;-0.20;71.90
18317;DHT22;9284;52.298;21.164;2023-03-01T07:13:08;0.40;93.20
18317;DHT22;9284;52.298;21.164;2023-03-01T07:15:40;1.00;99.90
18317;DHT22;9284;52.298;21.164;2023-03-01T07:18:08;1.70;1.00
18317;DHT22;9284;52.298;21.164;2023-03-01T07:20:37;1.90;36.10
18317;DHT22;9284;52.298;21.164;2023-03-01T07:23:05;2.30;1.00
18317;DHT22;9284;52.298;21.164;2023-03-01T07:25:34;2.40;1.00
18317;DHT22;9284;52.298;21.164;2023-03-01T07:28:02;2.20;1.00
18317;DHT22;9284;52.298;21.164;2023-03-01T07:30:30;2.50;1.00
18317;DHT22;9284;52.298;21.164;2023-03-01T07:33:00;2.60;1.00
18317;DHT22;9284;52.298;21.164;2023-03-01T07:35:29;3.10;1.00
18317;DHT22;9284;52.298;21.164;2023-03-01T07:37:57;3.50;1.00
18317;DHT22;9284;52.298;21.164;2023-03-01T07:40:25;3.40;1.00
18317;DHT22;9284;52.298;21.164;2023-03-01T07:42:55;4.00;1.00
18317;DHT22;9284;52.298;21.164;2023-03-01T07:45:25;4.50;99.90
18317;DHT22;9284;52.298;21.164;2023-03-01T07:47:53;4.70;99.90
18317;DHT22;9284;52.298;21.164;2023-03-01T07:50:23;4.80;99.90
18317;DHT22;9284;52.298;21.164;2023-03-01T07:52:51;5.00;99.90
18317;DHT22;9284;52.298;21.164;2023-03-01T07:55:20;4.80;99.90
18317;DHT22;9284;52.298;21.164;2023-03-01T07:57:48;4.80;99.90
18317;DHT22;9284;52.298;21.164;2023-03-01T08:00:17;4.50;99.90
18317;DHT22;9284;52.298;21.164;2023-03-01T08:02:45;4.30;99.90
18317;DHT22;9284;52.298;21.164;2023-03-01T08:05:14;4.10;99.90
18317;DHT22;9284;52.298;21.164;2023-03-01T08:07:43;4.20;99.90
18317;DHT22;9284;52.298;21.164;2023-03-01T08:10:12;4.00;99.90
18317;DHT22;9284;52.298;21.164;2023-03-01T08:12:40;3.60;99.90
18317;DHT22;9284;52.298;21.164;2023-03-01T08:15:09;3.40;99.90
18317;DHT22;9284;52.298;21.164;2023-03-01T08:17:38;3.30;99.90
18317;DHT22;9284;52.298;21.164;2023-03-01T08:20:07;3.30;99.90
18317;DHT22;9284;52.298;21.164;2023-03-01T08:22:39;3.40;99.90
18317;DHT22;9284;52.298;21.164;2023-03-01T08:25:09;3.30;99.90
18317;DHT22;9284;52.298;21.164;2023-03-01T08:27:37;3.30;99.90
18317;DHT22;9284;52.298;21.164;2023-03-01T08:30:07;3.20;1.00
18317;DHT22;9284;52.298;21.164;2023-03-01T08:32:36;2.90;99.90
18317;DHT22;9284;52.298;21.164;2023-03-01T08:35:06;2.90;1.00
18317;DHT22;9284;52.298;21.164;2023-03-01T08:37:34;2.90;1.00
18317;DHT22;9284;52.298;21.164;2023-03-01T08:40:03;3.00;1.00
18317;DHT22;9284;52.298;21.164;2023-03-01T08:42:36;3.10;1.00
18317;DHT22;9284;52.298;21.164;2023-03-01T08:45:06;3.20;1.00
18317;DHT22;9284;52.298;21.164;2023-03-01T08:47:34;3.20;1.00
18317;DHT22;9284;52.298;21.164;2023-03-01T08:50:03;3.30;1.00
18317;DHT22;9284;52.298;21.164;2023-03-01T08:52:32;3.40;1.00
18317;DHT22;9284;52.298;21.164;2023-03-01T08:55:00;3.30;1.00
18317;DHT22;9284;52.298;21.164;2023-03-01T08:57:29;3.30;1.00
18317;DHT22;9284;52.298;21.164;2023-03-01T08:59:59;3.30;1.00
18317;DHT22;9284;52.298;21.164;2023-03-01T09:02:27;3.50;1.00
18317;DHT22;9284;52.298;21.164;2023-03-01T09:04:56;3.40;1.00
18317;DHT22;9284;52.298;21.164;2023-03-01T09:07:24;3.40;1.00
18317;DHT22;9284;52.298;21.164;2023-03-01T09:09:55;3.50;1.00
18317;DHT22;9284;52.298;21.164;2023-03-01T09:12:23;3.50;1.00
18317;DHT22;9284;52.298;21.164;2023-03-01T09:14:52;3.50;1.00
18317;DHT22;9284;52.298;21.164;2023-03-01T09:17:22;3.50;1.00
18317;DHT22;9284;52.298;21.164;2023-03-01T09:19:50;3.60;1.00
18317;DHT22;9284;52.298;21.164;2023-03-01T09:22:19;3.60;1.00
18317;DHT22;9284;52.298;21.164;2023-03-01T09:24:47;3.60;1.00
18317;DHT22;9284;52.298;21.164;2023-03-01T09:27:15;3.50;1.00
18317;DHT22;9284;52.298;21.164;2023-03-01T09:29:45;3.60;1.00
18317;DHT22;9284;52.298;21.164;2023-03-01T09:32:14;3.70;1.00
18317;DHT22;9284;52.298;21.164;2023-03-01T09:34:44;3.70;1.00
18317;DHT22;9284;52.298;21.164;2023-03-01T09:37:32;3.70;1.00
18317;DHT22;9284;52.298;21.164;2023-03-01T09:40:01;3.60;1.00
18317;DHT22;9284;52.298;21.164;2023-03-01T09:42:32;3.70;1.00
18317;DHT22;9284;52.298;21.164;2023-03-01T09:45:04;3.70;1.00
18317;DHT22;9284;52.298;21.164;2023-03-01T09:47:34;3.80;1.00
18317;DHT22;9284;52.298;21.164;2023-03-01T09:50:10;3.90;1.00
18317;DHT22;9284;52.298;21.164;2023-03-01T09:52:41;3.90;1.00
18317;DHT22;9284;52.298;21.164;2023-03-01T09:55:13;4.10;1.00
18317;DHT22;9284;52.298;21.164;2023-03-01T09:57:47;4.10;1.00
18317;DHT22;9284;52.298;21.164;2023-03-01T10:00:29;4.10;1.00
18317;DHT22;9284;52.298;21.164;2023-03-01T10:03:12;4.30;1.00
18317;DHT22;9284;52.298;21.164;2023-03-01T10:05:56;4.30;1.00
18317;DHT22;9284;52.298;21.164;2023-03-01T10:08:29;4.30;1.00
18317;DHT22;9284;52.298;21.164;2023-03-01T10:11:00;4.20;1.00
18317;DHT22;9284;52.298;21.164;2023-03-01T10:13:45;4.30;1.00
18317;DHT22;9284;52.298;21.164;2023-03-01T10:16:18;4.30;1.00
18317;DHT22;9284;52.298;21.164;2023-03-01T10:18:53;4.40;1.00
18317;DHT22;9284;52.298;21.164;2023-03-01T10:21:26;4.40;1.00
18317;DHT22;9284;52.298;21.164;2023-03-01T10:23:59;4.40;1.00
18317;DHT22;9284;52.298;21.164;2023-03-01T10:26:43;4.50;1.00
18317;DHT22;9284;52.298;21.164;2023-03-01T10:29:13;4.60;1.00
18317;DHT22;9284;52.298;21.164;2023-03-01T10:31:43;4.70;1.00
18317;DHT22;9284;52.298;21.164;2023-03-01T10:34:29;4.70;1.00
18317;DHT22;9284;52.298;21.164;2023-03-01T10:37:09;4.80;1.00
18317;DHT22;9284;52.298;21.164;2023-03-01T10:39:55;4.80;1.00
18317;DHT22;9284;52.298;21.164;2023-03-01T10:42:28;4.80;1.00
18317;DHT22;9284;52.298;21.164;2023-03-01T10:44:57;4.80;1.00
18317;DHT22;9284;52.298;21.164;2023-03-01T10:47:27;4.90;1.00
18317;DHT22;9284;52.298;21.164;2023-03-01T10:49:58;5.00;1.00
18317;DHT22;9284;52.298;21.164;2023-03-01T10:52:31;5.10;1.00
18317;DHT22;9284;52.298;21.164;2023-03-01T10:55:03;5.30;1.00
18317;DHT22;9284;52.298;21.164;2023-03-01T10:57:35;5.50;1.00
18317;DHT22;9284;52.298;21.164;2023-03-01T11:00:17;5.50;1.00
18317;DHT22;9284;52.298;21.164;2023-03-01T11:03:01;5.80;1.00
18317;DHT22;9284;52.298;21.164;2023-03-01T11:05:31;5.90;1.00
18317;DHT22;9284;52.298;21.164;2023-03-01T11:08:02;5.90;1.00
18317;DHT22;9284;52.298;21.164;2023-03-01T11:10:33;6.10;1.00
18317;DHT22;9284;52.298;21.164;2023-03-01T11:13:14;6.30;1.00
18317;DHT22;9284;52.298;21.164;2023-03-01T11:15:43;6.50;1.00
18317;DHT22;9284;52.298;21.164;2023-03-01T11:18:30;6.80;1.00
18317;DHT22;9284;52.298;21.164;2023-03-01T11:21:13;7.30;99.90
18317;DHT22;9284;52.298;21.164;2023-03-01T11:23:45;7.50;99.90
18317;DHT22;9284;52.298;21.164;2023-03-01T11:26:15;7.40;99.90
18317;DHT22;9284;52.298;21.164;2023-03-01T11:28:47;7.60;99.90
18317;DHT22;9284;52.298;21.164;2023-03-01T11:31:19;7.80;99.90
18317;DHT22;9284;52.298;21.164;2023-03-01T11:34:03;7.90;99.90
18317;DHT22;9284;52.298;21.164;2023-03-01T11:36:38;7.70;99.90
18317;DHT22;9284;52.298;21.164;2023-03-01T11:39:20;7.80;99.90
18317;DHT22;9284;52.298;21.164;2023-03-01T11:42:00;7.70;99.90
18317;DHT22;9284;52.298;21.164;2023-03-01T11:44:49;7.90;99.90
18317;DHT22;9284;52.298;21.164;2023-03-01T11:47:29;7.70;99.90
18317;DHT22;9284;52.298;21.164;2023-03-01T11:50:15;7.80;99.90
18317;DHT22;9284;52.298;21.164;2023-03-01T11:52:53;7.60;99.90
18317;DHT22;9284;52.298;21.164;2023-03-01T11:55:46;7.70;99.90
18317;DHT22;9284;52.298;21.164;2023-03-01T11:58:36;7.60;99.90
18317;DHT22;9284;52.298;21.164;2023-03-01T12:01:19;7.50;99.90
18317;DHT22;9284;52.298;21.164;2023-03-01T12:04:16;7.50;99.90
18317;DHT22;9284;52.298;21.164;2023-03-01T12:06:52;7.50;99.90
18317;DHT22;9284;52.298;21.164;2023-03-01T12:09:35;7.40;99.90
18317;DHT22;9284;52.298;21.164;2023-03-01T12:12:28;7.20;99.90
18317;DHT22;9284;52.298;21.164;2023-03-01T12:15:24;7.40;99.90
18317;DHT22;9284;52.298;21.164;2023-03-01T12:18:07;7.30;99.90
18317;DHT22;9284;52.298;21.164;2023-03-01T12:20:45;7.20;99.90
18317;DHT22;9284;52.298;21.164;2023-03-01T12:26:23;7.10;99.90
18317;DHT22;9284;52.298;21.164;2023-03-01T12:29:14;6.80;99.90
18317;DHT22;9284;52.298;21.164;2023-03-01T12:32:06;6.90;99.90
18317;DHT22;9284;52.298;21.164;2023-03-01T12:34:56;7.00;99.90
18317;DHT22;9284;52.298;21.164;2023-03-01T12:37:36;7.00;99.90
18317;DHT22;9284;52.298;21.164;2023-03-01T12:40:31;6.90;99.90
18317;DHT22;9284;52.298;21.164;2023-03-01T12:43:11;7.00;99.90
18317;DHT22;9284;52.298;21.164;2023-03-01T12:45:53;7.10;99.90
18317;DHT22;9284;52.298;21.164;2023-03-01T12:48:34;7.10;99.90
18317;DHT22;9284;52.298;21.164;2023-03-01T12:51:08;7.10;99.90
18317;DHT22;9284;52.298;21.164;2023-03-01T12:53:41;7.30;99.90
18317;DHT22;9284;52.298;21.164;2023-03-01T12:56:15;7.30;99.90
18317;DHT22;9284;52.298;21.164;2023-03-01T12:58:52;7.40;99.90
18317;DHT22;9284;52.298;21.164;2023-03-01T13:01:39;7.30;99.90
18317;DHT22;9284;52.298;21.164;2023-03-01T13:04:16;7.30;99.90
18317;DHT22;9284;52.298;21.164;2023-03-01T13:06:54;7.10;99.90
18317;DHT22;9284;52.298;21.164;2023-03-01T13:09:29;6.90;99.90
18317;DHT22;9284;52.298;21.164;2023-03-01T13:11:59;6.70;99.90
18317;DHT22;9284;52.298;21.164;2023-03-01T13:14:46;6.60;99.90
18317;DHT22;9284;52.298;21.164;2023-03-01T13:20:15;6.60;99.90
18317;DHT22;9284;52.298;21.164;2023-03-01T13:22:45;6.60;99.90
18317;DHT22;9284;52.298;21.164;2023-03-01T13:25:20;6.60;99.90
18317;DHT22;9284;52.298;21.164;2023-03-01T13:28:40;6.60;99.90
18317;DHT22;9284;52.298;21.164;2023-03-01T13:34:43;6.70;99.90
18317;DHT22;9284;52.298;21.164;2023-03-01T13:37:30;6.70;99.90
18317;DHT22;9284;52.298;21.164;2023-03-01T13:40:05;6.70;99.90
18317;DHT22;9284;52.298;21.164;2023-03-01T13:42:36;6.60;99.90
18317;DHT22;9284;52.298;21.164;2023-03-01T13:45:19;6.70;1.00
18317;DHT22;9284;52.298;21.164;2023-03-01T13:47:53;6.60;1.00
18317;DHT22;9284;52.298;21.164;2023-03-01T13:50:27;6.80;1.00
18317;DHT22;9284;52.298;21.164;2023-03-01T13:52:59;6.70;1.00
18317;DHT22;9284;52.298;21.164;2023-03-01T13:55:35;6.70;1.00
18317;DHT22;9284;52.298;21.164;2023-03-01T13:58:16;6.80;1.00
18317;DHT22;9284;52.298;21.164;2023-03-01T14:00:46;6.80;1.00
18317;DHT22;9284;52.298;21.164;2023-03-01T14:03:17;6.70;1.00
18317;DHT22;9284;52.298;21.164;2023-03-01T14:05:59;6.70;99.90
18317;DHT22;9284;52.298;21.164;2023-03-01T14:08:41;6.60;99.90
18317;DHT22;9284;52.298;21.164;2023-03-01T14:11:55;6.50;99.90
18317;DHT22;9284;52.298;21.164;2023-03-01T14:14:41;6.40;1.00
18317;DHT22;9284;52.298;21.164;2023-03-01T14:20:26;6.30;1.00
18317;DHT22;9284;52.298;21.164;2023-03-01T14:22:56;6.20;1.00
18317;DHT22;9284;52.298;21.164;2023-03-01T14:25:29;6.10;1.00
18317;DHT22;9284;52.298;21.164;2023-03-01T14:28:02;6.00;1.00
18317;DHT22;9284;52.298;21.164;2023-03-01T14:30:36;6.00;1.00
18317;DHT22;9284;52.298;21.164;2023-03-01T14:33:18;6.00;1.00
18317;DHT22;9284;52.298;21.164;2023-03-01T14:35:57;5.90;1.00
18317;DHT22;9284;52.298;21.164;2023-03-01T14:38:32;5.90;1.00
18317;DHT22;9284;52.298;21.164;2023-03-01T14:41:06;5.80;1.00
18317;DHT22;9284;52.298;21.164;2023-03-01T14:43:37;5.80;1.00
18317;DHT22;9284;52.298;21.164;2023-03-01T14:46:05;5.70;1.00
18317;DHT22;9284;52.298;21.164;2023-03-01T14:48:34;5.70;1.00
18317;DHT22;9284;52.298;21.164;2023-03-01T14:51:05;5.70;1.00
18317;DHT22;9284;52.298;21.164;2023-03-01T14:53:33;5.70;1.00
18317;DHT22;9284;52.298;21.164;2023-03-01T14:56:19;5.70;1.00
18317;DHT22;9284;52.298;21.164;2023-03-01T14:58:51;5.70;1.00
18317;DHT22;9284;52.298;21.164;2023-03-01T15:01:20;5.70;1.00
18317;DHT22;9284;52.298;21.164;2023-03-01T15:03:49;5.60;1.00
18317;DHT22;9284;52.298;21.164;2023-03-01T15:06:20;5.60;1.00
18317;DHT22;9284;52.298;21.164;2023-03-01T15:08:51;5.60;1.00
18317;DHT22;9284;52.298;21.164;2023-03-01T15:11:24;5.50;1.00
18317;DHT22;9284;52.298;21.164;2023-03-01T15:13:54;5.50;1.00
18317;DHT22;9284;52.298;21.164;2023-03-01T15:16:24;5.50;1.00
18317;DHT22;9284;52.298;21.164;2023-03-01T15:18:55;5.30;1.00
18317;DHT22;9284;52.298;21.164;2023-03-01T15:21:27;5.30;1.00
18317;DHT22;9284;52.298;21.164;2023-03-01T15:24:02;5.30;1.00
18317;DHT22;9284;52.298;21.164;2023-03-01T15:26:39;5.20;1.00
18317;DHT22;9284;52.298;21.164;2023-03-01T15:29:16;5.20;66.30
18317;DHT22;9284;52.298;21.164;2023-03-01T15:31:54;5.20;93.10
18317;DHT22;9284;52.298;21.164;2023-03-01T15:34:25;5.10;99.90
18317;DHT22;9284;52.298;21.164;2023-03-01T15:36:55;5.00;99.90
18317;DHT22;9284;52.298;21.164;2023-03-01T15:39:33;5.00;99.90
18317;DHT22;9284;52.298;21.164;2023-03-01T15:42:08;5.00;99.90
18317;DHT22;9284;52.298;21.164;2023-03-01T15:44:38;5.00;99.90
18317;DHT22;9284;52.298;21.164;2023-03-01T15:47:26;4.90;99.90
18317;DHT22;9284;52.298;21.164;2023-03-01T15:49:55;4.80;1.00
18317;DHT22;9284;52.298;21.164;2023-03-01T15:52:27;4.70;1.00
18317;DHT22;9284;52.298;21.164;2023-03-01T15:54:58;4.60;1.00
18317;DHT22;9284;52.298;21.164;2023-03-01T15:57:28;4.50;1.00
18317;DHT22;9284;52.298;21.164;2023-03-01T15:59:57;4.40;1.00
18317;DHT22;9284;52.298;21.164;2023-03-01T16:02:25;4.30;99.90
18317;DHT22;9284;52.298;21.164;2023-03-01T16:04:54;4.10;99.90
18317;DHT22;9284;52.298;21.164;2023-03-01T16:07:23;4.00;1.00
18317;DHT22;9284;52.298;21.164;2023-03-01T16:09:54;3.90;1.00
18317;DHT22;9284;52.298;21.164;2023-03-01T16:12:23;3.70;39.70
18317;DHT22;9284;52.298;21.164;2023-03-01T16:14:53;3.60;99.90
18317;DHT22;9284;52.298;21.164;2023-03-01T16:17:24;3.40;1.00
18317;DHT22;9284;52.298;21.164;2023-03-01T16:19:52;3.30;1.00
18317;DHT22;9284;52.298;21.164;2023-03-01T16:22:21;3.10;1.00
18317;DHT22;9284;52.298;21.164;2023-03-01T16:24:52;3.00;1.00
18317;DHT22;9284;52.298;21.164;2023-03-01T16:27:20;2.80;99.90
18317;DHT22;9284;52.298;21.164;2023-03-01T16:29:49;2.60;1.00
18317;DHT22;9284;52.298;21.164;2023-03-01T16:32:19;2.50;99.90
18317;DHT22;9284;52.298;21.164;2023-03-01T16:34:47;2.40;99.90
18317;DHT22;9284;52.298;21.164;2023-03-01T16:37:16;2.30;1.00
18317;DHT22;9284;52.298;21.164;2023-03-01T16:39:46;2.10;1.00
18317;DHT22;9284;52.298;21.164;2023-03-01T16:42:18;2.00;1.00
18317;DHT22;9284;52.298;21.164;2023-03-01T16:44:46;1.80;99.90
18317;DHT22;9284;52.298;21.164;2023-03-01T16:47:14;1.70;1.00
18317;DHT22;9284;52.298;21.164;2023-03-01T16:49:45;1.60;18.80
18317;DHT22;9284;52.298;21.164;2023-03-01T16:52:13;1.50;10.10
18317;DHT22;9284;52.298;21.164;2023-03-01T16:54:41;1.40;1.00
18317;DHT22;9284;52.298;21.164;2023-03-01T16:57:10;1.40;99.90
18317;DHT22;9284;52.298;21.164;2023-03-01T16:59:38;1.30;1.00
18317;DHT22;9284;52.298;21.164;2023-03-01T17:02:10;1.20;1.00
18317;DHT22;9284;52.298;21.164;2023-03-01T17:04:39;1.10;99.90
18317;DHT22;9284;52.298;21.164;2023-03-01T17:07:09;1.00;1.00
18317;DHT22;9284;52.298;21.164;2023-03-01T17:09:38;0.90;1.00
18317;DHT22;9284;52.298;21.164;2023-03-01T17:12:06;0.90;1.00
18317;DHT22;9284;52.298;21.164;2023-03-01T17:14:35;0.90;99.90
18317;DHT22;9284;52.298;21.164;2023-03-01T17:17:04;0.70;1.00
18317;DHT22;9284;52.298;21.164;2023-03-01T17:19:36;0.60;1.00
18317;DHT22;9284;52.298;21.164;2023-03-01T17:22:12;0.50;49.00
18317;DHT22;9284;52.298;21.164;2023-03-01T17:24:42;0.50;1.00
18317;DHT22;9284;52.298;21.164;2023-03-01T17:27:11;0.50;99.90
18317;DHT22;9284;52.298;21.164;2023-03-01T17:29:41;0.40;1.00
18317;DHT22;9284;52.298;21.164;2023-03-01T17:32:09;0.30;1.00
18317;DHT22;9284;52.298;21.164;2023-03-01T17:34:38;0.20;99.90
18317;DHT22;9284;52.298;21.164;2023-03-01T17:37:06;0.20;99.90
18317;DHT22;9284;52.298;21.164;2023-03-01T17:39:36;0.20;99.90
18317;DHT22;9284;52.298;21.164;2023-03-01T17:42:04;0.00;99.90
18317;DHT22;9284;52.298;21.164;2023-03-01T17:44:33;0.00;99.90
18317;DHT22;9284;52.298;21.164;2023-03-01T17:47:02;0.00;99.90
18317;DHT22;9284;52.298;21.164;2023-03-01T17:49:31;-0.10;1.00
18317;DHT22;9284;52.298;21.164;2023-03-01T17:51:59;-0.10;1.00
18317;DHT22;9284;52.298;21.164;2023-03-01T17:54:28;-0.10;1.00
18317;DHT22;9284;52.298;21.164;2023-03-01T17:56:58;-0.30;1.00
18317;DHT22;9284;52.298;21.164;2023-03-01T17:59:26;-0.30;1.00
18317;DHT22;9284;52.298;21.164;2023-03-01T18:01:57;-0.30;1.00
18317;DHT22;9284;52.298;21.164;2023-03-01T18:04:27;-0.40;1.00
18317;DHT22;9284;52.298;21.164;2023-03-01T18:06:55;-0.40;1.00
18317;DHT22;9284;52.298;21.164;2023-03-01T18:09:26;-0.40;50.70
18317;DHT22;9284;52.298;21.164;2023-03-01T18:11:54;-0.50;42.00
18317;DHT22;9284;52.298;21.164;2023-03-01T18:14:24;-0.60;88.00
18317;DHT22;9284;52.298;21.164;2023-03-01T18:16:55;-0.60;99.90
18317;DHT22;9284;52.298;21.164;2023-03-01T18:19:24;-0.60;99.90
18317;DHT22;9284;52.298;21.164;2023-03-01T18:21:52;-0.70;99.90
18317;DHT22;9284;52.298;21.164;2023-03-01T18:24:20;-0.70;99.90
18317;DHT22;9284;52.298;21.164;2023-03-01T18:26:49;-0.70;99.90
18317;DHT22;9284;52.298;21.164;2023-03-01T18:29:17;-0.80;99.90
18317;DHT22;9284;52.298;21.164;2023-03-01T18:31:47;-0.80;99.90
18317;DHT22;9284;52.298;21.164;2023-03-01T18:34:16;-0.80;1.00
18317;DHT22;9284;52.298;21.164;2023-03-01T18:36:44;-0.80;1.00
18317;DHT22;9284;52.298;21.164;2023-03-01T18:39:33;-0.90;1.00
18317;DHT22;9284;52.298;21.164;2023-03-01T18:42:01;-0.80;1.00
18317;DHT22;9284;52.298;21.164;2023-03-01T18:44:29;-1.00;1.00
18317;DHT22;9284;52.298;21.164;2023-03-01T18:46:59;-1.00;1.00
18317;DHT22;9284;52.298;21.164;2023-03-01T18:49:28;-1.10;1.00
18317;DHT22;9284;52.298;21.164;2023-03-01T18:51:56;-1.10;1.00
18317;DHT22;9284;52.298;21.164;2023-03-01T18:54:24;-1.10;1.00
18317;DHT22;9284;52.298;21.164;2023-03-01T18:56:53;-1.10;1.00
18317;DHT22;9284;52.298;21.164;2023-03-01T18:59:21;-1.10;1.00
18317;DHT22;9284;52.298;21.164;2023-03-01T19:01:50;-1.10;1.00
18317;DHT22;9284;52.298;21.164;2023-03-01T19:04:19;-1.10;1.00
18317;DHT22;9284;52.298;21.164;2023-03-01T19:06:48;-1.20;1.00
18317;DHT22;9284;52.298;21.164;2023-03-01T19:09:16;-1.20;1.00
18317;DHT22;9284;52.298;21.164;2023-03-01T19:11:44;-1.20;1.00
18317;DHT22;9284;52.298;21.164;2023-03-01T19:14:13;-1.20;1.00
18317;DHT22;9284;52.298;21.164;2023-03-01T19:16:48;-1.20;1.00
18317;DHT22;9284;52.298;21.164;2023-03-01T19:19:17;-1.30;1.00
18317;DHT22;9284;52.298;21.164;2023-03-01T19:21:46;-1.30;1.00
18317;DHT22;9284;52.298;21.164;2023-03-01T19:24:30;-1.30;1.00
18317;DHT22;9284;52.298;21.164;2023-03-01T19:26:59;-1.30;1.00
18317;DHT22;9284;52.298;21.164;2023-03-01T19:29:28;-1.30;1.00
18317;DHT22;9284;52.298;21.164;2023-03-01T19:31:56;-1.40;1.00
18317;DHT22;9284;52.298;21.164;2023-03-01T19:34:25;-1.40;1.00
18317;DHT22;9284;52.298;21.164;2023-03-01T19:36:55;-1.30;1.00
18317;DHT22;9284;52.298;21.164;2023-03-01T19:39:23;-1.30;1.00
18317;DHT22;9284;52.298;21.164;2023-03-01T19:41:53;-1.20;1.00
18317;DHT22;9284;52.298;21.164;2023-03-01T19:44:21;-1.30;1.00
18317;DHT22;9284;52.298;21.164;2023-03-01T19:46:52;-1.30;1.00
18317;DHT22;9284;52.298;21.164;2023-03-01T19:49:26;-1.40;1.00
18317;DHT22;9284;52.298;21.164;2023-03-01T19:51:57;-1.40;1.00
18317;DHT22;9284;52.298;21.164;2023-03-01T19:54:26;-1.40;1.00
18317;DHT22;9284;52.298;21.164;2023-03-01T19:56:54;-1.50;1.00
18317;DHT22;9284;52.298;21.164;2023-03-01T19:59:23;-1.40;1.00
18317;DHT22;9284;52.298;21.164;2023-03-01T20:01:53;-1.50;1.00
18317;DHT22;9284;52.298;21.164;2023-03-01T20:04:26;-1.50;1.00
18317;DHT22;9284;52.298;21.164;2023-03-01T20:06:58;-1.60;1.00
18317;DHT22;9284;52.298;21.164;2023-03-01T20:09:27;-1.60;1.00
18317;DHT22;9284;52.298;21.164;2023-03-01T20:11:55;-1.50;1.00
18317;DHT22;9284;52.298;21.164;2023-03-01T20:14:24;-1.60;1.00
18317;DHT22;9284;52.298;21.164;2023-03-01T20:16:52;-1.60;1.00
18317;DHT22;9284;52.298;21.164;2023-03-01T20:19:20;-1.60;1.00
18317;DHT22;9284;52.298;21.164;2023-03-01T20:21:49;-1.60;1.00
18317;DHT22;9284;52.298;21.164;2023-03-01T20:24:19;-1.60;1.00
18317;DHT22;9284;52.298;21.164;2023-03-01T20:26:47;-1.60;1.00
18317;DHT22;9284;52.298;21.164;2023-03-01T20:29:16;-1.60;1.00
18317;DHT22;9284;52.298;21.164;2023-03-01T20:31:44;-1.60;1.00
18317;DHT22;9284;52.298;21.164;2023-03-01T20:34:12;-1.60;1.00
18317;DHT22;9284;52.298;21.164;2023-03-01T20:36:41;-1.60;1.00
18317;DHT22;9284;52.298;21.164;2023-03-01T20:39:10;-1.60;1.00
18317;DHT22;9284;52.298;21.164;2023-03-01T20:41:40;-1.60;1.00
18317;DHT22;9284;52.298;21.164;2023-03-01T20:44:08;-1.60;1.00